Time;durP1;ratioP1;P1;durP2;ratioP2;P2;SDS_P1;SDS_P2;PMS_P1;PMS_P2;Temp;Humidity;BMP_temperature;BMP_pressure;BME280_temperature;BME280_humidity;BME280_pressure;Samples;Min_cycle;Max_cycle;Signal;HPM_P1;HPM_P2
2021/05/19 00:01:01;;;;;;;1.20;1.20;;;;;;;13.01;60.95;100300.19;5069896;28;20253;-69
2021/05/19 00:03:29;;;;;;;1.33;1.23;;;;;;;12.98;61.33;100305.84;5069760;28;20199;-69
2021/05/19 00:05:56;;;;;;;1.40;1.30;;;;;;;12.97;60.99;100305.00;5069874;28;20197;-69
2021/05/19 00:08:24;;;;;;;1.50;1.20;;;;;;;12.95;61.05;100311.50;5067561;28;20202;-69
2021/05/19 00:10:52;;;;;;;1.40;1.30;;;;;;;12.92;60.88;100311.75;5071101;28;20260;-69
2021/05/19 00:13:20;;;;;;;1.10;1.00;;;;;;;12.90;61.16;100303.81;5069641;28;20227;-68
2021/05/19 00:15:48;;;;;;;1.27;1.17;;;;;;;12.87;60.96;100305.91;5075245;28;20197;-69
2021/05/19 00:18:16;;;;;;;1.60;1.37;;;;;;;12.89;60.81;100307.47;5070189;28;20207;-69
2021/05/19 00:20:44;;;;;;;1.30;1.20;;;;;;;12.90;61.18;100308.34;5070075;28;20208;-69
2021/05/19 00:23:11;;;;;;;4.37;1.37;;;;;;;12.56;61.10;100267.22;5068467;28;20255;-74
2021/05/19 00:25:39;;;;;;;1.80;1.33;;;;;;;12.89;61.22;100312.03;5078963;28;20195;-74
2021/05/19 00:28:06;;;;;;;1.40;1.30;;;;;;;12.89;61.15;100312.03;5069023;28;20204;-75
2021/05/19 00:30:37;;;;;;;1.33;1.23;;;;;;;12.93;60.97;100318.84;5069609;28;20240;-75
2021/05/19 00:33:06;;;;;;;2.10;1.23;;;;;;;12.92;61.21;100311.75;5062436;28;20216;-75
2021/05/19 00:35:34;;;;;;;2.23;1.20;;;;;;;12.98;61.08;100314.78;5066523;28;20218;-75
2021/05/19 00:38:01;;;;;;;1.33;1.23;;;;;;;12.89;60.52;100301.25;5069227;28;20221;-75
2021/05/19 00:40:30;;;;;;;1.30;1.20;;;;;;;13.02;60.70;100312.69;5066635;28;20194;-75
2021/05/19 00:42:58;;;;;;;1.37;1.27;;;;;;;12.96;60.99;100305.13;5067003;28;20208;-69
2021/05/19 00:45:26;;;;;;;1.20;1.10;;;;;;;12.98;60.43;100305.84;5064584;28;20202;-69
2021/05/19 00:47:55;;;;;;;1.13;1.10;;;;;;;12.95;60.54;100316.88;5063977;28;20260;-69
2021/05/19 00:50:26;;;;;;;1.27;1.17;;;;;;;12.95;60.79;100324.97;5066044;28;20211;-74
2021/05/19 00:52:54;;;;;;;1.70;1.60;;;;;;;12.95;61.09;100322.28;5067010;28;20209;-75
2021/05/19 00:55:23;;;;;;;1.30;1.07;;;;;;;12.92;61.06;100322.53;5098270;28;20205;-75
2021/05/19 00:57:53;;;;;;;1.20;1.10;;;;;;;12.87;60.81;100328.31;5067164;28;20227;-74
2021/05/19 01:00:26;;;;;;;1.27;1.17;;;;;;;12.88;61.58;100331.88;5061817;28;20217;-74
2021/05/19 01:03:03;;;;;;;1.03;0.90;;;;;;;12.65;61.81;100301.47;5066380;28;20213;-74
2021/05/19 01:05:36;;;;;;;2.33;1.13;;;;;;;12.71;62.65;100325.19;5066365;28;20256;-75
2021/05/19 01:10:56;;;;;;;413.83;246.17;;;;;;;12.71;62.17;100322.50;5070660;28;20214;-75
2021/05/19 01:13:23;;;;;;;19.57;13.90;;;;;;;12.70;62.65;100324.34;5068827;28;20234;-74
2021/05/19 01:15:51;;;;;;;2.93;2.73;;;;;;;12.72;63.23;100319.66;5067898;28;20542;-75
2021/05/19 01:18:19;;;;;;;3.20;2.90;;;;;;;12.76;63.40;100322.97;5067561;28;20242;-75
2021/05/19 01:20:48;;;;;;;5.40;3.60;;;;;;;12.78;63.93;100318.28;5074108;28;20716;-75
2021/05/19 01:23:17;;;;;;;3.27;2.60;;;;;;;12.79;64.04;100321.84;5074195;28;20285;-75
2021/05/19 01:25:46;;;;;;;2.00;1.53;;;;;;;12.84;63.12;100331.25;5075154;28;20216;-74
2021/05/19 01:28:13;;;;;;;2.33;1.90;;;;;;;12.58;63.60;100284.97;5073628;28;20191;-69
2021/05/19 01:30:42;;;;;;;2.23;2.03;;;;;;;12.90;62.57;100344.22;5072162;28;20203;-69
2021/05/19 01:33:09;;;;;;;2.63;2.00;;;;;;;12.92;62.51;100336.00;5072518;28;20192;-69
2021/05/19 01:35:37;;;;;;;7.30;3.30;;;;;;;12.94;61.62;100336.75;5071980;28;20760;-69
2021/05/19 01:38:06;;;;;;;6.00;4.70;;;;;;;12.95;61.42;100349.22;5104859;27;20555;-69
2021/05/19 01:40:36;;;;;;;5.77;4.40;;;;;;;12.96;61.23;100345.56;5072691;28;20215;-69
2021/05/19 01:43:09;;;;;;;5.07;3.77;;;;;;;12.97;61.61;100341.88;5085785;28;20201;-69
2021/05/19 01:45:55;;;;;;;2.00;1.80;;;;;;;12.89;61.55;100333.59;5070234;28;20217;-69
2021/05/19 01:48:24;;;;;;;1.27;1.17;;;;;;;12.82;61.82;100338.59;5074328;28;20699;-75
2021/05/19 01:50:52;;;;;;;1.40;1.30;;;;;;;12.67;62.59;100340.75;5072455;28;20207;-75
2021/05/19 01:53:20;;;;;;;1.47;1.30;;;;;;;12.59;61.93;100335.16;5075404;28;20205;-75
2021/05/19 01:55:49;;;;;;;1.20;1.10;;;;;;;12.49;61.95;100336.88;5073501;28;20207;-74
2021/05/19 01:58:17;;;;;;;3.13;1.20;;;;;;;12.41;62.52;100333.97;5073831;28;20226;-75
2021/05/19 02:00:46;;;;;;;1.00;1.00;;;;;;;12.34;62.19;100333.63;5074954;28;20239;-74
2021/05/19 02:03:20;;;;;;;2.70;1.50;;;;;;;12.27;62.57;100334.25;5063202;28;20203;-74
2021/05/19 02:06:00;;;;;;;1.67;1.40;;;;;;;12.26;62.42;100336.09;5072080;28;20195;-74
2021/05/19 02:08:29;;;;;;;1.73;1.63;;;;;;;11.88;62.88;100271.88;5087908;28;20673;-69
2021/05/19 02:10:58;;;;;;;1.60;1.30;;;;;;;12.23;62.89;100341.69;5074318;28;20606;-69
2021/05/19 02:13:30;;;;;;;1.30;1.17;;;;;;;12.17;62.97;100336.81;5063114;28;20334;-69
2021/05/19 02:15:58;;;;;;;4.53;1.30;;;;;;;12.09;62.70;100337.44;5073951;28;20200;-69
2021/05/19 02:18:26;;;;;;;1.00;1.00;;;;;;;12.02;62.62;100332.69;5072788;28;20261;-69
2021/05/19 02:20:54;;;;;;;1.20;1.10;;;;;;;11.96;62.89;100336.72;5069235;28;20219;-69
2021/05/19 02:23:22;;;;;;;1.00;1.00;;;;;;;11.85;63.74;100331.31;5074112;28;20198;-68
2021/05/19 02:25:50;;;;;;;1.17;1.03;;;;;;;11.84;63.57;100339.53;5071567;28;20202;-68
2021/05/19 02:28:19;;;;;;;1.00;1.00;;;;;;;11.77;63.21;100337.28;5072025;28;20201;-68
2021/05/19 02:30:49;;;;;;;1.37;1.27;;;;;;;11.72;62.95;100338.63;5069028;28;20291;-68
2021/05/19 02:33:22;;;;;;;1.33;1.20;;;;;;;11.65;63.24;100335.59;5066901;28;20199;-68
2021/05/19 02:35:53;;;;;;;1.33;1.00;;;;;;;11.60;63.43;100334.22;5101891;28;20228;-68
2021/05/19 02:38:20;;;;;;;1.23;1.20;;;;;;;11.58;63.40;100328.09;5067129;28;20229;-73
2021/05/19 02:40:49;;;;;;;1.90;1.20;;;;;;;11.49;63.59;100330.53;5100871;28;20743;-74
2021/05/19 02:43:17;;;;;;;1.37;1.20;;;;;;;11.49;63.61;100335.06;5069161;28;20226;-74
2021/05/19 02:45:46;;;;;;;1.87;1.20;;;;;;;11.44;64.09;100334.56;5103513;28;20655;-74
2021/05/19 02:48:13;;;;;;;1.43;1.33;;;;;;;11.42;63.74;100325.78;5069062;28;20205;-69
2021/05/19 02:50:41;;;;;;;1.37;1.10;;;;;;;11.38;63.95;100322.47;5068568;28;20298;-68
2021/05/19 02:53:09;;;;;;;1.70;1.30;;;;;;;11.20;64.29;100283.56;5072094;28;20284;-68
2021/05/19 02:55:37;;;;;;;1.33;1.10;;;;;;;11.50;63.64;100329.56;5067338;28;20194;-68
2021/05/19 02:58:05;;;;;;;1.30;1.20;;;;;;;11.51;64.36;100331.28;5069931;28;20225;-67
2021/05/19 03:00:32;;;;;;;1.03;1.03;;;;;;;11.55;64.36;100322.97;5071723;28;20232;-67
2021/05/19 03:03:01;;;;;;;0.93;0.93;;;;;;;11.61;64.59;100333.22;5070873;28;20688;-69
2021/05/19 03:05:29;;;;;;;1.23;1.13;;;;;;;11.67;64.94;100330.09;5061596;28;20289;-68
2021/05/19 03:07:57;;;;;;;4.43;1.10;;;;;;;11.79;65.97;100337.19;5070827;28;20197;-68
2021/05/19 03:10:25;;;;;;;1.17;1.13;;;;;;;11.97;65.66;100340.28;5070048;28;20228;-68
2021/05/19 03:12:53;;;;;;;5.63;1.17;;;;;;;12.03;66.43;100329.00;5068598;28;20260;-69
2021/05/19 03:15:22;;;;;;;1.43;1.20;;;;;;;12.07;66.35;100325.94;5076041;28;20307;-68
2021/05/19 03:17:50;;;;;;;1.73;1.07;;;;;;;12.25;66.01;100331.69;5069205;28;20558;-68
2021/05/19 03:20:19;;;;;;;1.50;1.20;;;;;;;12.37;67.03;100333.38;5068272;28;20248;-68
2021/05/19 03:22:47;;;;;;;1.17;1.07;;;;;;;12.60;66.74;100327.94;5068251;28;20274;-68
2021/05/19 03:25:14;;;;;;;0.90;0.90;;;;;;;12.74;67.50;100333.88;5070071;28;20225;-68
2021/05/19 03:27:42;;;;;;;1.10;1.10;;;;;;;13.09;65.49;100327.34;5067309;28;20192;-68
2021/05/19 03:30:13;;;;;;;1.00;1.00;;;;;;;13.27;65.54;100331.22;5067301;28;20200;-68
2021/05/19 03:32:41;;;;;;;1.37;1.27;;;;;;;13.34;65.31;100329.69;5066769;28;20679;-68
2021/05/19 03:35:11;;;;;;;1.70;1.10;;;;;;;13.47;64.53;100339.41;5070167;28;20193;-68
2021/05/19 03:37:41;;;;;;;1.70;1.30;;;;;;;13.55;64.08;100326.13;5068619;28;20225;-68
2021/05/19 03:40:11;;;;;;;1.33;1.23;;;;;;;13.66;64.33;100326.03;5064023;28;20203;-68
2021/05/19 03:42:39;;;;;;;1.40;1.30;;;;;;;13.79;63.95;100329.41;5064078;28;20205;-68
2021/05/19 03:45:10;;;;;;;1.30;1.20;;;;;;;13.86;64.07;100335.97;5066447;28;20656;-68
2021/05/19 03:47:38;;;;;;;1.27;1.13;;;;;;;13.93;63.44;100329.03;5068291;28;20658;-74
2021/05/19 03:50:09;;;;;;;1.73;1.30;;;;;;;14.05;63.06;100331.59;5066225;28;20592;-74
2021/05/19 03:52:37;;;;;;;1.90;1.20;;;;;;;14.08;62.13;100323.22;5065402;28;21502;-74
2021/05/19 03:55:09;;;;;;;1.17;1.13;;;;;;;14.05;62.64;100335.16;5067058;28;20204;-74
2021/05/19 03:57:38;;;;;;;1.57;1.20;;;;;;;14.09;62.33;100333.06;5099362;28;20625;-75
2021/05/19 04:00:09;;;;;;;1.10;1.10;;;;;;;14.02;62.82;100329.19;5069053;28;20202;-74
2021/05/19 04:02:48;;;;;;;1.40;1.27;;;;;;;14.01;62.59;100339.13;5065285;28;20206;-74
2021/05/19 04:05:17;;;;;;;1.47;1.20;;;;;;;14.07;62.42;100326.94;5071933;28;20259;-74
2021/05/19 04:07:45;;;;;;;1.40;1.30;;;;;;;14.12;62.35;100330.94;5073325;28;20197;-75
2021/05/19 04:10:14;;;;;;;1.40;1.30;;;;;;;14.11;62.19;100328.38;5068910;28;20714;-74
2021/05/19 04:12:41;;;;;;;1.30;1.20;;;;;;;14.13;62.38;100331.81;5066664;28;20232;-73
2021/05/19 04:15:10;;;;;;;1.10;1.00;;;;;;;14.05;62.13;100313.56;5072265;28;20197;-74
2021/05/19 04:17:38;;;;;;;1.13;1.13;;;;;;;14.13;61.60;100337.22;5073553;28;20209;-74
2021/05/19 04:20:07;;;;;;;1.40;1.10;;;;;;;14.14;61.66;100333.50;5069287;28;21215;-75
2021/05/19 04:22:34;;;;;;;5.73;1.33;;;;;;;14.09;61.83;100330.38;5071294;28;20200;-74
2021/05/19 04:25:02;;;;;;;1.10;1.10;;;;;;;14.16;60.66;100331.53;5071045;28;20196;-75
2021/05/19 04:27:31;;;;;;;2.53;1.10;;;;;;;14.14;60.66;100334.38;5075448;28;20196;-75
2021/05/19 04:29:59;;;;;;;2.00;1.33;;;;;;;13.88;60.71;100293.47;5066301;28;20197;-76
2021/05/19 04:32:26;;;;;;;2.47;1.27;;;;;;;14.23;60.65;100332.69;5066337;28;20203;-76
2021/05/19 04:34:54;;;;;;;1.03;1.00;;;;;;;14.24;60.20;100332.53;5065971;28;20595;-76
2021/05/19 04:37:22;;;;;;;1.73;1.30;;;;;;;14.15;60.95;100337.91;5064470;28;20565;-76
2021/05/19 04:39:50;;;;;;;3.17;1.13;;;;;;;14.21;60.53;100338.22;5062482;28;20208;-76
2021/05/19 04:42:18;;;;;;;2.20;1.27;;;;;;;14.31;59.40;100332.84;5061906;28;20199;-76
2021/05/19 04:44:47;;;;;;;1.27;1.17;;;;;;;14.32;59.66;100329.16;5064910;28;20682;-76
2021/05/19 04:47:15;;;;;;;4.10;1.00;;;;;;;14.19;60.33;100315.91;5063285;28;20200;-76
2021/05/19 04:49:43;;;;;;;1.57;1.20;;;;;;;14.32;59.93;100331.84;5062879;28;20209;-69
2021/05/19 04:52:11;;;;;;;1.87;1.33;;;;;;;14.39;60.17;100333.03;5065888;28;20288;-69
2021/05/19 04:54:39;;;;;;;1.90;1.27;;;;;;;14.53;60.51;100329.09;5064758;28;20207;-76
2021/05/19 04:57:06;;;;;;;4.87;1.50;;;;;;;14.68;60.65;100329.53;5065366;28;20200;-76
2021/05/19 04:59:34;;;;;;;1.30;1.20;;;;;;;14.82;60.23;100329.13;5063227;28;20232;-76
2021/05/19 05:02:06;;;;;;;1.43;1.30;;;;;;;15.04;59.88;100328.00;5065751;28;20270;-76
2021/05/19 05:04:34;;;;;;;1.57;1.30;;;;;;;15.17;59.93;100325.84;5065461;28;20228;-76
2021/05/19 05:07:01;;;;;;;1.00;1.00;;;;;;;15.41;59.96;100319.97;5063695;28;20203;-75
2021/05/19 05:09:29;;;;;;;1.30;1.10;;;;;;;15.48;59.50;100318.38;5062839;28;20201;-76
2021/05/19 05:11:57;;;;;;;1.30;1.20;;;;;;;15.69;58.77;100318.22;5062862;28;20719;-75
2021/05/19 05:14:24;;;;;;;2.00;1.23;;;;;;;15.94;59.19;100316.72;5062569;28;20193;-75
2021/05/19 05:16:52;;;;;;;1.00;1.00;;;;;;;16.08;58.57;100311.66;5062577;28;20242;-75
2021/05/19 05:19:21;;;;;;;1.20;1.10;;;;;;;16.22;58.71;100298.59;5062372;28;20225;-75
2021/05/19 05:21:49;;;;;;;1.57;1.20;;;;;;;16.63;58.54;100319.75;5063838;28;20237;-75
2021/05/19 05:24:21;;;;;;;1.20;1.10;;;;;;;16.87;57.92;100321.91;5062429;28;20189;-75
2021/05/19 05:26:48;;;;;;;1.27;1.13;;;;;;;17.10;57.77;100321.41;5063999;28;20235;-75
2021/05/19 05:29:16;;;;;;;4.20;1.20;;;;;;;17.12;56.52;100312.09;5062471;28;20200;-75
2021/05/19 05:31:44;;;;;;;0.93;0.93;;;;;;;17.36;56.41;100327.72;5061703;28;20193;-75
2021/05/19 05:34:12;;;;;;;1.50;1.40;;;;;;;17.64;56.09;100332.00;5064790;28;21455;-74
2021/05/19 05:36:40;;;;;;;4.77;1.20;;;;;;;17.99;54.70;100335.66;5059191;28;20224;-69
2021/05/19 05:39:08;;;;;;;1.27;1.17;;;;;;;18.31;53.51;100330.34;5062048;28;20748;-75
2021/05/19 05:41:36;;;;;;;1.30;1.20;;;;;;;18.52;51.27;100331.78;5065406;28;20280;-75
2021/05/19 05:44:05;;;;;;;1.40;1.30;;;;;;;18.41;50.81;100329.41;5065144;28;20208;-75
2021/05/19 05:46:32;;;;;;;1.43;1.10;;;;;;;18.63;52.22;100317.06;5061075;28;20583;-75
2021/05/19 05:49:00;;;;;;;1.27;1.20;;;;;;;19.06;52.29;100318.66;5063222;28;20201;-74
2021/05/19 05:51:28;;;;;;;2.00;1.30;;;;;;;19.38;51.08;100324.13;5067911;28;20201;-69
2021/05/19 05:58:13;;;;;;;666.13;526.70;;;;;;;20.13;49.91;100318.34;5062074;28;20282;-69
2021/05/19 06:00:41;;;;;;;708.20;322.50;;;;;;;20.43;48.71;100319.44;5070213;28;20675;-69
2021/05/19 06:03:09;;;;;;;134.63;72.10;;;;;;;20.77;48.87;100317.19;5063966;28;20907;-69
2021/05/19 06:05:37;;;;;;;45.77;25.37;;;;;;;21.00;47.49;100310.91;5066475;28;20221;-75
2021/05/19 06:08:05;;;;;;;19.83;11.40;;;;;;;21.27;48.02;100320.47;5070600;28;20308;-75
2021/05/19 06:10:33;;;;;;;10.10;5.70;;;;;;;21.54;47.61;100319.88;5068393;28;20768;-75
2021/05/19 06:13:01;;;;;;;7.20;5.30;;;;;;;21.86;46.51;100326.91;5069788;28;20221;-75
2021/05/19 06:15:30;;;;;;;7.87;4.97;;;;;;;22.08;45.43;100321.56;5071616;28;20276;-74
2021/05/19 06:17:57;;;;;;;8.00;5.87;;;;;;;22.32;44.60;100332.19;5066969;28;20197;-74
2021/05/19 06:20:25;;;;;;;12.07;6.57;;;;;;;22.61;43.54;100329.41;5069656;28;20723;-74
2021/05/19 06:22:53;;;;;;;4.60;4.20;;;;;;;22.84;43.21;100323.81;5068205;28;20201;-74
2021/05/19 06:25:22;;;;;;;5.80;3.90;;;;;;;23.01;42.32;100324.44;5068618;28;20197;-74
2021/05/19 06:27:50;;;;;;;8.07;3.97;;;;;;;23.09;42.71;100321.56;5063223;28;20679;-74
2021/05/19 06:30:18;;;;;;;6.30;4.03;;;;;;;23.33;41.80;100328.53;5070375;28;20671;-74
2021/05/19 06:32:47;;;;;;;5.83;4.30;;;;;;;23.47;41.80;100318.50;5067746;28;20231;-74
2021/05/19 06:35:15;;;;;;;2.90;2.50;;;;;;;23.41;42.42;100313.84;5069937;28;20560;-75
2021/05/19 06:37:43;;;;;;;2.30;2.10;;;;;;;23.22;42.10;100321.66;5068847;28;20251;-74
2021/05/19 06:40:11;;;;;;;3.23;2.80;;;;;;;23.51;42.12;100325.28;5065067;28;20218;-75
2021/05/19 06:42:39;;;;;;;2.40;2.27;;;;;;;23.61;42.23;100320.38;5067260;28;20247;-68
2021/05/19 06:45:08;;;;;;;4.03;3.03;;;;;;;23.78;41.63;100321.75;5075272;28;20279;-69
2021/05/19 06:47:36;;;;;;;5.20;2.43;;;;;;;23.89;41.73;100319.50;5068119;28;20200;-71
2021/05/19 06:50:06;;;;;;;3.50;3.20;;;;;;;24.04;40.64;100322.97;5067528;28;20704;-75
2021/05/19 06:52:33;;;;;;;2.70;2.50;;;;;;;24.16;38.90;100324.94;5064895;28;20193;-76
2021/05/19 06:55:02;;;;;;;2.87;2.57;;;;;;;24.10;40.50;100305.69;5066843;28;20205;-76
2021/05/19 06:57:29;;;;;;;2.33;2.13;;;;;;;24.43;40.16;100331.44;5068125;28;20193;-75
2021/05/19 06:59:57;;;;;;;4.10;2.83;;;;;;;24.50;39.89;100331.50;5065498;28;20580;-76
2021/05/19 07:02:25;;;;;;;3.43;2.00;;;;;;;24.42;40.07;100335.25;5063957;28;20209;-76
2021/05/19 07:04:53;;;;;;;1.83;1.73;;;;;;;24.54;39.27;100329.19;5061834;28;20204;-75
2021/05/19 07:07:21;;;;;;;2.13;1.93;;;;;;;24.54;39.66;100324.53;5066012;28;20203;-75
2021/05/19 07:09:49;;;;;;;5.00;2.60;;;;;;;24.69;39.31;100329.84;5068457;28;20194;-75
2021/05/19 07:12:18;;;;;;;2.30;2.10;;;;;;;24.77;38.88;100326.91;5066554;28;20257;-76
2021/05/19 07:14:50;;;;;;;1.70;1.60;;;;;;;24.66;39.60;100327.53;5066404;28;20602;-74
2021/05/19 07:17:18;;;;;;;4.50;2.77;;;;;;;24.93;39.54;100329.31;5066616;28;20201;-74
2021/05/19 07:19:46;;;;;;;3.47;2.43;;;;;;;25.05;39.40;100319.41;5066268;28;20637;-76
2021/05/19 07:22:14;;;;;;;4.10;1.90;;;;;;;24.98;38.21;100324.06;5067882;28;20194;-76
2021/05/19 07:24:43;;;;;;;3.30;2.50;;;;;;;25.30;37.73;100329.81;5065499;28;20219;-76
2021/05/19 07:27:11;;;;;;;2.10;1.80;;;;;;;25.13;37.97;100325.78;5064979;28;20720;-76
2021/05/19 07:29:39;;;;;;;2.70;1.70;;;;;;;24.94;37.40;100250.47;5066965;28;20181;-76
2021/05/19 07:32:07;;;;;;;3.13;1.80;;;;;;;25.46;37.71;100328.56;5065570;28;20207;-77
2021/05/19 07:34:36;;;;;;;2.77;2.40;;;;;;;25.31;37.30;100326.00;5065861;28;20240;-76
2021/05/19 07:37:05;;;;;;;1.63;1.53;;;;;;;25.35;37.28;100335.53;5084841;28;20490;-75
2021/05/19 07:39:33;;;;;;;1.63;1.53;;;;;;;25.43;36.98;100327.09;5066441;28;20402;-76
2021/05/19 07:42:01;;;;;;;1.53;1.43;;;;;;;25.57;36.78;100328.78;5077512;28;20208;-75
2021/05/19 07:44:29;;;;;;;1.63;1.52;;;;;;;25.86;36.51;100322.00;5064881;28;20282;-74
2021/05/19 07:46:57;;;;;;;4.30;1.37;;;;;;;25.46;36.09;100323.06;5068535;28;20185;-75
2021/05/19 07:49:23;;;;;;;3.27;1.30;;;;;;;25.42;36.24;100325.41;5069517;28;20239;-75
2021/05/19 07:51:50;;;;;;;1.60;1.50;;;;;;;25.66;35.44;100327.53;5069608;28;20660;-75
2021/05/19 07:54:24;;;;;;;2.80;1.77;;;;;;;25.93;36.07;100325.59;5067201;28;20193;-74
2021/05/19 07:56:54;;;;;;;2.35;1.65;;;;;;;25.87;36.11;100331.94;5069382;28;20200;-73
2021/05/19 07:59:24;;;;;;;1.30;1.30;;;;;;;25.94;35.76;100331.94;5069582;28;20303;-73
2021/05/19 08:02:03;;;;;;;1.27;1.20;;;;;;;26.02;35.73;100317.97;5068720;28;20746;-73
2021/05/19 08:04:32;;;;;;;3.47;1.80;;;;;;;26.38;35.75;100311.09;5067551;28;20655;-73
2021/05/19 08:06:59;;;;;;;2.37;1.37;;;;;;;26.40;34.93;100314.50;5082369;28;20292;-73
2021/05/19 08:09:27;;;;;;;1.38;1.27;;;;;;;26.60;34.98;100313.31;5066531;28;20697;-72
2021/05/19 08:11:54;;;;;;;1.80;1.58;;;;;;;26.76;34.69;100313.91;5060609;28;20229;-73
2021/05/19 08:14:20;;;;;;;1.50;1.40;;;;;;;26.86;34.47;100314.25;5065889;28;20574;-68
2021/05/19 08:16:48;;;;;;;4.90;1.50;;;;;;;26.79;32.69;100319.81;5064361;28;20572;-68
2021/05/19 08:19:15;;;;;;;1.40;1.30;;;;;;;26.56;34.57;100323.09;5061976;28;20225;-68
2021/05/19 08:21:43;;;;;;;5.75;1.40;;;;;;;26.57;34.86;100318.44;5062529;28;20322;-68
2021/05/19 08:24:11;;;;;;;1.10;1.10;;;;;;;26.76;34.99;100322.16;5063037;28;20201;-68
2021/05/19 08:26:40;;;;;;;1.23;1.20;;;;;;;26.74;34.55;100297.59;5067359;28;20235;-67
2021/05/19 08:29:08;;;;;;;1.30;1.20;;;;;;;26.59;34.32;100286.00;5064114;28;20209;-67
2021/05/19 08:31:36;;;;;;;4.00;1.25;;;;;;;26.48;34.07;100315.09;5066500;28;20201;-68
2021/05/19 08:34:13;;;;;;;1.02;1.02;;;;;;;26.81;33.80;100308.56;5066189;28;20188;-68
2021/05/19 08:36:41;;;;;;;1.33;1.23;;;;;;;26.67;32.70;100306.97;5065985;28;20215;-68
2021/05/19 08:39:09;;;;;;;2.28;1.40;;;;;;;26.51;34.17;100262.31;5065989;28;20605;-68
2021/05/19 08:41:38;;;;;;;1.20;1.20;;;;;;;27.05;33.81;100291.28;5066602;28;20223;-68
2021/05/19 08:44:06;;;;;;;1.05;1.05;;;;;;;27.18;34.55;100301.34;5067874;28;20205;-69
2021/05/19 08:46:35;;;;;;;2.33;1.38;;;;;;;27.36;34.85;100311.63;5076892;28;20213;-69
2021/05/19 08:49:06;;;;;;;1.00;1.00;;;;;;;27.24;34.66;100308.72;5061013;28;20197;-69
2021/05/19 08:51:34;;;;;;;1.33;1.33;;;;;;;27.26;34.64;100301.09;5063349;28;20205;-69
2021/05/19 08:54:04;;;;;;;1.13;1.05;;;;;;;27.30;34.14;100318.03;5066793;28;20242;-70
2021/05/19 08:56:32;;;;;;;1.67;1.00;;;;;;;27.51;34.62;100324.00;5066623;28;20595;-69
2021/05/19 08:59:00;;;;;;;2.35;0.90;;;;;;;27.49;34.09;100317.88;5065417;28;20208;-71
2021/05/19 09:01:36;;;;;;;0.90;0.90;;;;;;;27.07;34.27;100282.78;5066733;28;20548;-70
2021/05/19 09:04:05;;;;;;;1.30;1.20;;;;;;;26.78;32.82;100267.66;5066820;28;20189;-71
2021/05/19 09:06:36;;;;;;;1.02;1.02;;;;;;;27.44;33.59;100311.34;5065978;28;20263;-71
2021/05/19 09:09:24;;;;;;;1.00;1.00;;;;;;;27.35;30.36;100305.25;5066924;28;20276;-71
2021/05/19 09:11:56;;;;;;;0.80;0.80;;;;;;;27.70;33.42;100302.00;5065937;28;20252;-69
2021/05/19 09:14:25;;;;;;;1.10;1.10;;;;;;;27.98;33.88;100296.84;5066596;28;20282;-74
2021/05/19 09:16:53;;;;;;;1.20;1.10;;;;;;;27.98;32.01;100294.09;5066788;28;20761;-74
2021/05/19 09:19:34;;;;;;;0.80;0.80;;;;;;;27.82;31.98;100300.19;5068017;28;20249;-69
2021/05/19 09:22:03;;;;;;;0.98;0.98;;;;;;;27.76;31.11;100306.63;5067339;28;20597;-69
2021/05/19 09:24:32;;;;;;;1.00;0.90;;;;;;;27.66;32.52;100295.25;5067563;28;20601;-69
2021/05/19 09:27:01;;;;;;;1.10;1.00;;;;;;;28.04;33.18;100304.22;5067232;28;20902;-69
2021/05/19 09:29:33;;;;;;;1.45;1.00;;;;;;;28.25;33.94;100291.06;5067697;28;20742;-70
2021/05/19 09:32:04;;;;;;;1.15;0.90;;;;;;;28.53;33.68;100285.81;5067344;28;20601;-70
2021/05/19 09:34:35;;;;;;;1.10;1.10;;;;;;;28.72;32.61;100278.31;5067176;28;20719;-70
2021/05/19 09:37:24;;;;;;;1.25;1.00;;;;;;;28.50;30.43;100275.22;5067150;28;20193;-70
2021/05/19 09:39:56;;;;;;;0.90;0.90;;;;;;;28.72;31.85;100283.84;5058933;28;20240;-70
2021/05/19 09:42:25;;;;;;;0.80;0.80;;;;;;;28.47;30.82;100292.28;5071755;28;20186;-70
2021/05/19 09:44:56;;;;;;;1.08;1.08;;;;;;;28.42;31.13;100289.34;5071707;28;20189;-70
2021/05/19 09:47:41;;;;;;;0.90;0.90;;;;;;;28.40;31.22;100255.56;5071346;28;20200;-70
2021/05/19 09:50:11;;;;;;;1.00;1.00;;;;;;;28.66;31.31;100285.63;5070696;28;20211;-70
2021/05/19 09:52:40;;;;;;;1.20;1.10;;;;;;;28.13;29.98;100291.78;5070947;28;20725;-70
2021/05/19 09:55:10;;;;;;;0.90;0.90;;;;;;;28.28;30.48;100296.13;5071022;28;20194;-70
2021/05/19 09:57:53;;;;;;;1.60;0.90;;;;;;;27.37;30.50;100263.66;5069198;28;20197;-69
2021/05/19 10:00:23;;;;;;;1.10;1.00;;;;;;;27.01;30.63;100302.97;5071461;28;20225;-70
2021/05/19 10:02:52;;;;;;;0.90;0.68;;;;;;;26.93;31.37;100293.84;5074582;28;20262;-70
2021/05/19 10:05:23;;;;;;;0.70;0.70;;;;;;;26.91;30.89;100290.47;5066658;28;20721;-70
2021/05/19 10:07:54;;;;;;;1.00;1.00;;;;;;;26.96;30.84;100287.06;5070434;28;20497;-70
2021/05/19 10:10:22;;;;;;;0.82;0.82;;;;;;;27.04;31.17;100288.75;5070373;28;20707;-70
2021/05/19 10:12:50;;;;;;;3.67;1.00;;;;;;;27.26;30.55;100294.75;5073158;28;20733;-70
2021/05/19 10:15:22;;;;;;;0.80;0.80;;;;;;;27.21;29.60;100298.13;5068640;28;20279;-69
2021/05/19 10:17:55;;;;;;;0.93;0.90;;;;;;;26.75;27.16;100279.13;5082487;28;20631;-69
2021/05/19 10:20:26;;;;;;;0.75;0.75;;;;;;;26.35;29.46;100281.25;5067340;28;20217;-69
2021/05/19 10:22:55;;;;;;;1.27;0.93;;;;;;;25.98;28.51;100286.41;5069270;28;20205;-69
2021/05/19 10:25:38;;;;;;;2.05;0.77;;;;;;;25.31;28.37;100268.25;5067318;28;20656;-69
2021/05/19 10:28:08;;;;;;;0.68;0.63;;;;;;;25.52;31.21;100284.56;5069637;28;20193;-69
2021/05/19 10:30:42;;;;;;;0.70;0.70;;;;;;;25.73;31.60;100285.44;5068967;28;20189;-69
2021/05/19 10:33:43;;;;;;;1.63;0.80;;;;;;;26.18;30.67;100289.94;5067596;28;20964;-69
2021/05/19 10:36:37;;;;;;;0.80;0.80;;;;;;;26.39;31.23;100285.25;5068222;28;20491;-69
2021/05/19 10:39:35;;;;;;;0.93;0.93;;;;;;;26.22;30.24;100208.59;5066704;28;20246;-69
2021/05/19 10:42:04;;;;;;;0.80;0.80;;;;;;;27.08;28.19;100281.69;5069220;28;20228;-69
2021/05/19 10:44:32;;;;;;;0.90;0.90;;;;;;;27.23;29.50;100268.41;5069486;28;20508;-69
2021/05/19 10:47:03;;;;;;;1.30;0.88;;;;;;;26.99;29.06;100283.91;5068792;28;20702;-69
2021/05/19 10:58:49;;;;;;;1.02;0.80;;;;;;;26.70;28.28;100287.22;5069931;28;20232;-74
2021/05/19 11:01:18;;;;;;;0.85;0.80;;;;;;;26.44;29.26;100291.78;5065565;28;20230;-72
2021/05/19 11:04:19;;;;;;;1.33;0.77;;;;;;;26.36;27.57;100296.72;5067347;28;20683;-73
2021/05/19 11:07:06;;;;;;;0.70;0.70;;;;;;;26.12;29.76;100292.72;5044464;28;20204;-73
2021/05/19 11:09:35;;;;;;;1.02;0.93;;;;;;;26.10;30.35;100290.19;5046630;28;20214;-73
2021/05/19 11:12:49;;;;;;;0.63;0.63;;;;;;;26.32;27.61;100296.25;5059130;28;20232;-73
2021/05/19 11:21:27;;;;;;;1.35;0.73;;;;;;;25.60;30.08;100270.56;5068506;28;20734;-73
2021/05/19 11:24:02;;;;;;;0.80;0.80;;;;;;;25.88;27.94;100294.28;5066048;28;20208;-73
2021/05/19 11:26:39;;;;;;;0.80;0.80;;;;;;;26.25;29.63;100287.16;5067275;28;20201;-73
2021/05/19 11:29:10;;;;;;;2.88;1.00;;;;;;;26.55;30.36;100291.09;5067141;28;20231;-73
2021/05/19 11:31:40;;;;;;;2.30;0.82;;;;;;;26.81;30.08;100306.66;5068996;28;20194;-73
2021/05/19 11:34:09;;;;;;;1.08;0.88;;;;;;;26.59;30.07;100299.75;5067766;28;20644;-73
2021/05/19 11:36:40;;;;;;;1.20;1.10;;;;;;;25.78;30.88;100288.38;5066677;28;20607;-73
2021/05/19 11:39:23;;;;;;;1.30;1.20;;;;;;;25.44;31.95;100292.19;5066987;28;20213;-73
2021/05/19 11:41:52;;;;;;;1.00;1.00;;;;;;;25.22;32.88;100291.53;5066422;28;20632;-73
2021/05/19 11:44:34;;;;;;;0.93;0.88;;;;;;;25.48;31.79;100291.53;5067039;28;20193;-73
2021/05/19 11:47:03;;;;;;;2.20;1.10;;;;;;;25.36;31.80;100298.72;5067075;28;20277;-73
2021/05/19 11:49:31;;;;;;;1.13;1.03;;;;;;;25.55;31.61;100286.03;5068310;28;20213;-73
2021/05/19 11:51:59;;;;;;;2.50;1.20;;;;;;;25.41;31.88;100293.47;5068789;28;20228;-74
2021/05/19 11:54:28;;;;;;;2.63;1.20;;;;;;;24.87;31.67;100260.59;5067432;28;20205;-73
2021/05/19 11:56:59;;;;;;;1.60;1.00;;;;;;;24.99;33.87;100290.03;5070959;28;20541;-73
2021/05/19 11:59:29;;;;;;;1.10;1.00;;;;;;;25.03;34.03;100294.03;5069053;28;20202;-73